Excellence — KTDP — position and weather

sailwx.info

Track history (hours):
 
Tides and Currents Weather Stations Pressure Air Temp Water Temp Dewpoint Dewpoint Depression Visibility Wind Speed Wind Dir Waves Ship Positions

Excellence

More information available from US FCC via Universal Licensing System and Coast Guard Vessel Documentation Center.

Last reported at 2014-Jul-06 10:30 UTC. Time now 2014-Jul-26 01:05 UTC.
Position N 49°01' W 126°39'.
Warning: this ship's position is 19 days out of date.

Length 112 m; draft 7 m.

Type: Fishing. MMSI: 338162000.

Date/timePositionNaut miles runAvg speedWind from/ knotsBaromVisibWave heightAir tempDewpointWater temp
2014-Jul-06 10:30N 49°01' W 126°39'1212.6
2014-Jul-06 09:33N 48°55' W 126°22'1212.2
2014-Jul-06 08:33N 48°51' W 126°05'1212.4
2014-Jul-06 07:33N 48°45' W 125°48'1312.5
2014-Jul-06 06:33N 48°39' W 125°32'1312.7
2014-Jul-06 05:33N 48°33' W 125°15'1312.7
2014-Jul-06 04:33N 48°31' W 124°56'1312.6
2014-Jul-06 03:33N 48°29' W 124°37'1312.7
2014-Jul-06 02:33N 48°24' W 124°20'1312.9
2014-Jul-06 01:33N 48°19' W 124°02'1312.9
2014-Jul-06 00:33N 48°16' W 123°43'1313.4
2014-Jul-05 23:33N 48°14' W 123°23'1413.6
2014-Jul-05 22:33N 48°12' W 123°03'1313.5
2014-Jul-05 21:33N 48°09' W 122°43'1413.5
2014-Jul-05 20:33N 47°57' W 122°33'1312.8
2014-Jul-05 19:33N 47°45' W 122°26'8 8.1
2014-Jul-05 18:34N 47°38' W 122°23'0 0.0
2014-Jul-05 13:11N 47°38' W 122°23'0 0.0
2014-Jul-05 12:32N 47°38' W 122°23'0 0.0
2014-Jul-05 11:32N 47°38' W 122°23'0 0.0
2014-Jul-05 10:32N 47°38' W 122°23'0 0.0
2014-Jul-05 09:32N 47°38' W 122°23'0 0.0
2014-Jul-05 08:32N 47°38' W 122°23'0 0.0
2014-Jul-05 07:32N 47°38' W 122°23'0 0.0
2014-Jul-05 06:32N 47°38' W 122°23'0 0.0
2014-Jul-05 05:32N 47°38' W 122°23'0 0.0
2014-Jul-05 04:32N 47°38' W 122°23'0 0.0
2014-Jul-05 03:32N 47°38' W 122°23'0 0.0
2014-Jul-05 02:32N 47°38' W 122°23'0 0.0
2014-Jul-05 01:32N 47°38' W 122°23'0 0.0
2014-Jul-05 00:32N 47°38' W 122°23'  
2014-Jul-01 04:31N 47°38' W 122°23'0 0.0
2014-Jul-01 03:31N 47°38' W 122°23'0 0.0
2014-Jul-01 02:31N 47°38' W 122°23'0 0.0
2014-Jul-01 01:31N 47°38' W 122°23'0 0.0
2014-Jul-01 00:31N 47°38' W 122°23'0 0.0
2014-Jun-30 23:31N 47°38' W 122°23'0 0.0
2014-Jun-30 22:31N 47°38' W 122°23'0 0.0
2014-Jun-30 21:31N 47°38' W 122°23'0 0.0
2014-Jun-30 20:31N 47°38' W 122°23'0 0.0
2014-Jun-30 19:31N 47°38' W 122°23'0 0.0
2014-Jun-30 18:31N 47°38' W 122°23'0 0.0
2014-Jun-30 17:33N 47°38' W 122°23'0 0.0
2014-Jun-30 16:33N 47°38' W 122°23'2 1.9
2014-Jun-30 15:33N 47°38' W 122°26'5 4.6
2014-Jun-30 14:33N 47°42' W 122°28'1010.5
2014-Jun-30 13:33N 47°53' W 122°29'1110.5
2014-Jun-30 12:33N 48°01' W 122°38'1312.3
2014-Jun-30 11:31N 48°11' W 122°50'1212.6
2014-Jun-30 10:33N 48°12' W 123°09'1212.3
2014-Jun-30 09:33N 48°13' W 123°27'1111.4
2014-Jun-30 08:33N 48°14' W 123°44'1212.1
2014-Jun-30 07:33N 48°16' W 124°02'1211.7
2014-Jun-30 06:33N 48°21' W 124°18'1211.9
2014-Jun-30 05:33N 48°26' W 124°34'1211.7
2014-Jun-30 04:33N 48°29' W 124°51'1010.1
2014-Jun-30 03:33N 48°22' W 125°03'1512.6
2014-Jun-30 02:21N 48°08' W 125°10'911.1
2014-Jun-30 01:31N 48°01' W 125°02'  
Track history (hours):
 
Tides and Currents Weather Stations Pressure Air Temp Water Temp Dewpoint Dewpoint Depression Visibility Wind Speed Wind Dir Waves Ship Positions

Excellence

More information available from US FCC via Universal Licensing System and Coast Guard Vessel Documentation Center.

Last reported at 2014-Jul-06 10:30 UTC. Time now 2014-Jul-26 01:05 UTC.
Position N 49°01' W 126°39'.
Warning: this ship's position is 19 days out of date.

Length 112 m; draft 7 m.

Type: Fishing. MMSI: 338162000.

Date/timePositionNaut miles runAvg speedWind from/ knotsBaromVisibWave heightAir tempDewpointWater temp
2014-Jul-06 10:30N 49°01' W 126°39'1212.6
2014-Jul-06 09:33N 48°55' W 126°22'1212.2
2014-Jul-06 08:33N 48°51' W 126°05'1212.4
2014-Jul-06 07:33N 48°45' W 125°48'1312.5
2014-Jul-06 06:33N 48°39' W 125°32'1312.7
2014-Jul-06 05:33N 48°33' W 125°15'1312.7
2014-Jul-06 04:33N 48°31' W 124°56'1312.6
2014-Jul-06 03:33N 48°29' W 124°37'1312.7
2014-Jul-06 02:33N 48°24' W 124°20'1312.9
2014-Jul-06 01:33N 48°19' W 124°02'1312.9
2014-Jul-06 00:33N 48°16' W 123°43'1313.4
2014-Jul-05 23:33N 48°14' W 123°23'1413.6
2014-Jul-05 22:33N 48°12' W 123°03'1313.5
2014-Jul-05 21:33N 48°09' W 122°43'1413.5
2014-Jul-05 20:33N 47°57' W 122°33'1312.8
2014-Jul-05 19:33N 47°45' W 122°26'8 8.1
2014-Jul-05 18:34N 47°38' W 122°23'0 0.0
2014-Jul-05 13:11N 47°38' W 122°23'0 0.0
2014-Jul-05 12:32N 47°38' W 122°23'0 0.0
2014-Jul-05 11:32N 47°38' W 122°23'0 0.0
2014-Jul-05 10:32N 47°38' W 122°23'0 0.0
2014-Jul-05 09:32N 47°38' W 122°23'0 0.0
2014-Jul-05 08:32N 47°38' W 122°23'0 0.0
2014-Jul-05 07:32N 47°38' W 122°23'0 0.0
2014-Jul-05 06:32N 47°38' W 122°23'0 0.0
2014-Jul-05 05:32N 47°38' W 122°23'0 0.0
2014-Jul-05 04:32N 47°38' W 122°23'0 0.0
2014-Jul-05 03:32N 47°38' W 122°23'0 0.0
2014-Jul-05 02:32N 47°38' W 122°23'0 0.0
2014-Jul-05 01:32N 47°38' W 122°23'0 0.0
2014-Jul-05 00:32N 47°38' W 122°23'  
2014-Jul-01 04:31N 47°38' W 122°23'0 0.0
2014-Jul-01 03:31N 47°38' W 122°23'0 0.0
2014-Jul-01 02:31N 47°38' W 122°23'0 0.0
2014-Jul-01 01:31N 47°38' W 122°23'0 0.0
2014-Jul-01 00:31N 47°38' W 122°23'0 0.0
2014-Jun-30 23:31N 47°38' W 122°23'0 0.0
2014-Jun-30 22:31N 47°38' W 122°23'0 0.0
2014-Jun-30 21:31N 47°38' W 122°23'0 0.0
2014-Jun-30 20:31N 47°38' W 122°23'0 0.0
2014-Jun-30 19:31N 47°38' W 122°23'0 0.0
2014-Jun-30 18:31N 47°38' W 122°23'0 0.0
2014-Jun-30 17:33N 47°38' W 122°23'0 0.0
2014-Jun-30 16:33N 47°38' W 122°23'2 1.9
2014-Jun-30 15:33N 47°38' W 122°26'5 4.6
2014-Jun-30 14:33N 47°42' W 122°28'1010.5
2014-Jun-30 13:33N 47°53' W 122°29'1110.5
2014-Jun-30 12:33N 48°01' W 122°38'1312.3
2014-Jun-30 11:31N 48°11' W 122°50'1212.6
2014-Jun-30 10:33N 48°12' W 123°09'1212.3
2014-Jun-30 09:33N 48°13' W 123°27'1111.4
2014-Jun-30 08:33N 48°14' W 123°44'1212.1
2014-Jun-30 07:33N 48°16' W 124°02'1211.7
2014-Jun-30 06:33N 48°21' W 124°18'1211.9
2014-Jun-30 05:33N 48°26' W 124°34'1211.7
2014-Jun-30 04:33N 48°29' W 124°51'1010.1
2014-Jun-30 03:33N 48°22' W 125°03'1512.6
2014-Jun-30 02:21N 48°08' W 125°10'911.1
2014-Jun-30 01:31N 48°01' W 125°02'  

Dump ship's entire track history